sensor_id;sensor_type;location;lat;lon;timestamp;temperature;humidity
64062;DHT22;50308;47.438;-1.528;2023-01-15T00:03:42;11.60;89.10
64062;DHT22;50308;47.438;-1.528;2023-01-15T00:06:08;11.60;88.90
64062;DHT22;50308;47.438;-1.528;2023-01-15T00:08:34;11.60;88.50
64062;DHT22;50308;47.438;-1.528;2023-01-15T00:11:01;11.50;88.70
64062;DHT22;50308;47.438;-1.528;2023-01-15T00:13:27;11.50;88.70
64062;DHT22;50308;47.438;-1.528;2023-01-15T00:15:53;11.50;88.20
64062;DHT22;50308;47.438;-1.528;2023-01-15T00:18:18;11.50;88.30
64062;DHT22;50308;47.438;-1.528;2023-01-15T00:20:44;11.50;88.20
64062;DHT22;50308;47.438;-1.528;2023-01-15T00:23:10;11.50;88.60
64062;DHT22;50308;47.438;-1.528;2023-01-15T00:25:55;11.50;87.90
64062;DHT22;50308;47.438;-1.528;2023-01-15T00:28:59;11.40;88.10
64062;DHT22;50308;47.438;-1.528;2023-01-15T00:31:25;11.50;88.30
64062;DHT22;50308;47.438;-1.528;2023-01-15T00:33:51;11.50;87.50
64062;DHT22;50308;47.438;-1.528;2023-01-15T00:36:16;11.50;87.60
64062;DHT22;50308;47.438;-1.528;2023-01-15T00:38:42;11.50;87.60
64062;DHT22;50308;47.438;-1.528;2023-01-15T00:41:07;11.50;87.50
64062;DHT22;50308;47.438;-1.528;2023-01-15T00:43:33;11.50;87.40
64062;DHT22;50308;47.438;-1.528;2023-01-15T00:45:58;11.50;87.40
64062;DHT22;50308;47.438;-1.528;2023-01-15T00:48:24;11.40;87.50
64062;DHT22;50308;47.438;-1.528;2023-01-15T00:50:50;11.40;87.20
64062;DHT22;50308;47.438;-1.528;2023-01-15T00:53:15;11.30;87.00
64062;DHT22;50308;47.438;-1.528;2023-01-15T00:55:41;11.30;86.70
64062;DHT22;50308;47.438;-1.528;2023-01-15T00:58:06;11.20;86.60
64062;DHT22;50308;47.438;-1.528;2023-01-15T01:00:32;11.20;87.00
64062;DHT22;50308;47.438;-1.528;2023-01-15T01:02:57;11.20;87.60
64062;DHT22;50308;47.438;-1.528;2023-01-15T01:05:23;11.30;87.80
64062;DHT22;50308;47.438;-1.528;2023-01-15T01:07:49;11.20;86.50
64062;DHT22;50308;47.438;-1.528;2023-01-15T01:10:15;11.20;87.10
64062;DHT22;50308;47.438;-1.528;2023-01-15T01:12:41;11.20;86.50
64062;DHT22;50308;47.438;-1.528;2023-01-15T01:15:07;11.10;86.20
64062;DHT22;50308;47.438;-1.528;2023-01-15T01:17:35;11.20;87.00
64062;DHT22;50308;47.438;-1.528;2023-01-15T01:20:01;11.20;86.60
64062;DHT22;50308;47.438;-1.528;2023-01-15T01:22:27;11.20;86.80
64062;DHT22;50308;47.438;-1.528;2023-01-15T01:24:52;11.20;86.60
64062;DHT22;50308;47.438;-1.528;2023-01-15T01:27:18;11.30;86.60
64062;DHT22;50308;47.438;-1.528;2023-01-15T01:29:44;11.20;86.30
64062;DHT22;50308;47.438;-1.528;2023-01-15T01:32:09;11.20;86.40
64062;DHT22;50308;47.438;-1.528;2023-01-15T01:34:35;11.20;86.60
64062;DHT22;50308;47.438;-1.528;2023-01-15T01:37:00;11.20;86.60
64062;DHT22;50308;47.438;-1.528;2023-01-15T01:39:26;11.20;86.30
64062;DHT22;50308;47.438;-1.528;2023-01-15T01:41:51;11.10;86.50
64062;DHT22;50308;47.438;-1.528;2023-01-15T01:47:32;11.20;86.40
64062;DHT22;50308;47.438;-1.528;2023-01-15T01:49:52;11.20;86.30
64062;DHT22;50308;47.438;-1.528;2023-01-15T01:52:20;11.20;86.00
64062;DHT22;50308;47.438;-1.528;2023-01-15T01:54:46;11.10;86.00
64062;DHT22;50308;47.438;-1.528;2023-01-15T01:57:12;11.00;85.10
64062;DHT22;50308;47.438;-1.528;2023-01-15T01:59:38;10.90;85.60
64062;DHT22;50308;47.438;-1.528;2023-01-15T02:02:04;10.90;85.70
64062;DHT22;50308;47.438;-1.528;2023-01-15T02:04:30;10.80;85.20
64062;DHT22;50308;47.438;-1.528;2023-01-15T02:06:56;10.80;85.60
64062;DHT22;50308;47.438;-1.528;2023-01-15T02:09:23;10.80;85.50
64062;DHT22;50308;47.438;-1.528;2023-01-15T02:11:48;10.90;86.30
64062;DHT22;50308;47.438;-1.528;2023-01-15T02:17:12;10.90;86.00
64062;DHT22;50308;47.438;-1.528;2023-01-15T02:27:22;11.00;83.90
64062;DHT22;50308;47.438;-1.528;2023-01-15T02:32:33;10.90;84.40
64062;DHT22;50308;47.438;-1.528;2023-01-15T02:35:04;10.90;83.60
64062;DHT22;50308;47.438;-1.528;2023-01-15T02:37:32;10.80;83.20
64062;DHT22;50308;47.438;-1.528;2023-01-15T02:39:59;10.90;83.60
64062;DHT22;50308;47.438;-1.528;2023-01-15T02:42:26;10.90;83.40
64062;DHT22;50308;47.438;-1.528;2023-01-15T02:44:52;10.90;82.90
64062;DHT22;50308;47.438;-1.528;2023-01-15T02:47:21;10.90;82.60
64062;DHT22;50308;47.438;-1.528;2023-01-15T02:49:47;10.90;82.30
64062;DHT22;50308;47.438;-1.528;2023-01-15T02:52:16;10.90;82.10
64062;DHT22;50308;47.438;-1.528;2023-01-15T02:54:49;10.90;82.80
64062;DHT22;50308;47.438;-1.528;2023-01-15T02:57:15;10.90;82.30
64062;DHT22;50308;47.438;-1.528;2023-01-15T02:59:44;10.90;82.10
64062;DHT22;50308;47.438;-1.528;2023-01-15T03:02:16;10.90;82.10
64062;DHT22;50308;47.438;-1.528;2023-01-15T03:07:34;10.90;80.60
64062;DHT22;50308;47.438;-1.528;2023-01-15T03:10:01;10.80;81.30
64062;DHT22;50308;47.438;-1.528;2023-01-15T03:12:29;10.80;81.40
64062;DHT22;50308;47.438;-1.528;2023-01-15T03:17:26;10.80;81.50
64062;DHT22;50308;47.438;-1.528;2023-01-15T03:19:57;10.80;81.40
64062;DHT22;50308;47.438;-1.528;2023-01-15T03:22:27;10.70;81.60
64062;DHT22;50308;47.438;-1.528;2023-01-15T03:24:54;10.80;81.80
64062;DHT22;50308;47.438;-1.528;2023-01-15T03:27:21;10.80;81.50
64062;DHT22;50308;47.438;-1.528;2023-01-15T03:29:49;10.80;82.20
64062;DHT22;50308;47.438;-1.528;2023-01-15T03:32:16;10.80;82.10
64062;DHT22;50308;47.438;-1.528;2023-01-15T03:34:49;10.70;81.00
64062;DHT22;50308;47.438;-1.528;2023-01-15T03:37:14;10.70;81.40
64062;DHT22;50308;47.438;-1.528;2023-01-15T03:39:40;10.70;81.60
64062;DHT22;50308;47.438;-1.528;2023-01-15T03:42:26;10.70;81.60
64062;DHT22;50308;47.438;-1.528;2023-01-15T03:45:00;10.70;81.70
64062;DHT22;50308;47.438;-1.528;2023-01-15T03:47:42;10.80;81.90
64062;DHT22;50308;47.438;-1.528;2023-01-15T03:52:45;10.70;81.40
64062;DHT22;50308;47.438;-1.528;2023-01-15T03:55:19;10.70;82.10
64062;DHT22;50308;47.438;-1.528;2023-01-15T03:57:50;10.70;82.20
64062;DHT22;50308;47.438;-1.528;2023-01-15T04:02:44;10.70;82.00
64062;DHT22;50308;47.438;-1.528;2023-01-15T04:05:11;10.70;82.20
64062;DHT22;50308;47.438;-1.528;2023-01-15T04:07:37;10.70;81.50
64062;DHT22;50308;47.438;-1.528;2023-01-15T04:10:05;10.70;82.20
64062;DHT22;50308;47.438;-1.528;2023-01-15T04:12:31;10.70;81.90
64062;DHT22;50308;47.438;-1.528;2023-01-15T04:14:58;10.70;82.50
64062;DHT22;50308;47.438;-1.528;2023-01-15T04:17:23;10.70;82.30
64062;DHT22;50308;47.438;-1.528;2023-01-15T04:19:49;10.70;82.10
64062;DHT22;50308;47.438;-1.528;2023-01-15T04:22:15;10.80;81.70
64062;DHT22;50308;47.438;-1.528;2023-01-15T04:24:41;10.80;82.50
64062;DHT22;50308;47.438;-1.528;2023-01-15T04:27:07;10.80;82.40
64062;DHT22;50308;47.438;-1.528;2023-01-15T04:29:32;10.80;82.00
64062;DHT22;50308;47.438;-1.528;2023-01-15T04:31:58;10.80;82.60
64062;DHT22;50308;47.438;-1.528;2023-01-15T04:34:24;10.80;82.50
64062;DHT22;50308;47.438;-1.528;2023-01-15T04:36:51;10.80;82.20
64062;DHT22;50308;47.438;-1.528;2023-01-15T04:39:16;10.80;82.50
64062;DHT22;50308;47.438;-1.528;2023-01-15T04:41:42;10.80;82.30
64062;DHT22;50308;47.438;-1.528;2023-01-15T04:44:26;10.80;82.90
64062;DHT22;50308;47.438;-1.528;2023-01-15T04:46:53;10.80;82.90
64062;DHT22;50308;47.438;-1.528;2023-01-15T04:49:19;10.80;82.90
64062;DHT22;50308;47.438;-1.528;2023-01-15T04:51:45;10.80;82.40
64062;DHT22;50308;47.438;-1.528;2023-01-15T04:54:11;10.70;82.70
64062;DHT22;50308;47.438;-1.528;2023-01-15T04:56:39;10.70;82.70
64062;DHT22;50308;47.438;-1.528;2023-01-15T04:59:05;10.70;82.30
64062;DHT22;50308;47.438;-1.528;2023-01-15T05:01:30;10.60;81.90
64062;DHT22;50308;47.438;-1.528;2023-01-15T05:03:56;10.60;81.50
64062;DHT22;50308;47.438;-1.528;2023-01-15T05:06:23;10.60;80.80
64062;DHT22;50308;47.438;-1.528;2023-01-15T05:08:48;10.60;81.50
64062;DHT22;50308;47.438;-1.528;2023-01-15T05:11:14;10.50;80.40
64062;DHT22;50308;47.438;-1.528;2023-01-15T05:13:39;10.60;79.60
64062;DHT22;50308;47.438;-1.528;2023-01-15T05:16:09;10.50;79.40
64062;DHT22;50308;47.438;-1.528;2023-01-15T05:18:35;10.50;79.50
64062;DHT22;50308;47.438;-1.528;2023-01-15T05:21:00;10.50;78.90
64062;DHT22;50308;47.438;-1.528;2023-01-15T05:23:26;10.50;79.10
64062;DHT22;50308;47.438;-1.528;2023-01-15T05:25:51;10.40;79.30
64062;DHT22;50308;47.438;-1.528;2023-01-15T05:28:17;10.40;79.30
64062;DHT22;50308;47.438;-1.528;2023-01-15T05:30:43;10.40;79.50
64062;DHT22;50308;47.438;-1.528;2023-01-15T05:33:09;10.40;78.80
64062;DHT22;50308;47.438;-1.528;2023-01-15T05:35:34;10.40;79.20
64062;DHT22;50308;47.438;-1.528;2023-01-15T05:38:00;10.40;79.30
64062;DHT22;50308;47.438;-1.528;2023-01-15T05:40:28;10.40;79.20
64062;DHT22;50308;47.438;-1.528;2023-01-15T05:42:53;10.40;81.10
64062;DHT22;50308;47.438;-1.528;2023-01-15T05:45:19;10.40;79.30
64062;DHT22;50308;47.438;-1.528;2023-01-15T05:47:44;10.40;79.80
64062;DHT22;50308;47.438;-1.528;2023-01-15T05:50:10;10.30;80.20
64062;DHT22;50308;47.438;-1.528;2023-01-15T05:52:35;10.30;79.70
64062;DHT22;50308;47.438;-1.528;2023-01-15T05:55:01;10.30;79.60
64062;DHT22;50308;47.438;-1.528;2023-01-15T05:57:26;10.30;79.80
64062;DHT22;50308;47.438;-1.528;2023-01-15T05:59:52;10.20;80.20
64062;DHT22;50308;47.438;-1.528;2023-01-15T06:02:19;10.30;80.10
64062;DHT22;50308;47.438;-1.528;2023-01-15T06:04:44;10.40;80.30
64062;DHT22;50308;47.438;-1.528;2023-01-15T06:07:10;10.40;79.70
64062;DHT22;50308;47.438;-1.528;2023-01-15T06:09:35;10.40;79.80
64062;DHT22;50308;47.438;-1.528;2023-01-15T06:12:01;10.50;79.70
64062;DHT22;50308;47.438;-1.528;2023-01-15T06:14:26;10.40;79.60
64062;DHT22;50308;47.438;-1.528;2023-01-15T06:16:52;10.40;79.80
64062;DHT22;50308;47.438;-1.528;2023-01-15T06:19:18;10.40;79.60
64062;DHT22;50308;47.438;-1.528;2023-01-15T06:21:44;10.40;79.40
64062;DHT22;50308;47.438;-1.528;2023-01-15T06:24:09;10.40;80.30
64062;DHT22;50308;47.438;-1.528;2023-01-15T06:26:36;10.40;79.50
64062;DHT22;50308;47.438;-1.528;2023-01-15T06:29:01;10.40;79.40
64062;DHT22;50308;47.438;-1.528;2023-01-15T06:31:27;10.40;79.60
64062;DHT22;50308;47.438;-1.528;2023-01-15T06:33:52;10.40;79.10
64062;DHT22;50308;47.438;-1.528;2023-01-15T06:36:19;10.40;79.50
64062;DHT22;50308;47.438;-1.528;2023-01-15T06:38:48;10.40;79.30
64062;DHT22;50308;47.438;-1.528;2023-01-15T06:41:15;10.50;79.40
64062;DHT22;50308;47.438;-1.528;2023-01-15T06:43:59;10.50;79.20
64062;DHT22;50308;47.438;-1.528;2023-01-15T06:46:44;10.50;79.20
64062;DHT22;50308;47.438;-1.528;2023-01-15T06:49:29;10.50;79.20
64062;DHT22;50308;47.438;-1.528;2023-01-15T06:51:55;10.60;79.50
64062;DHT22;50308;47.438;-1.528;2023-01-15T06:54:20;10.60;78.90
64062;DHT22;50308;47.438;-1.528;2023-01-15T06:56:46;10.60;79.30
64062;DHT22;50308;47.438;-1.528;2023-01-15T06:59:12;10.60;79.10
64062;DHT22;50308;47.438;-1.528;2023-01-15T07:01:37;10.60;79.10
64062;DHT22;50308;47.438;-1.528;2023-01-15T07:04:03;10.60;80.10
64062;DHT22;50308;47.438;-1.528;2023-01-15T07:06:28;10.60;78.70
64062;DHT22;50308;47.438;-1.528;2023-01-15T07:08:54;10.50;79.10
64062;DHT22;50308;47.438;-1.528;2023-01-15T07:11:19;10.70;80.00
64062;DHT22;50308;47.438;-1.528;2023-01-15T07:13:45;10.80;78.70
64062;DHT22;50308;47.438;-1.528;2023-01-15T07:16:11;10.60;78.50
64062;DHT22;50308;47.438;-1.528;2023-01-15T07:18:53;10.60;79.10
64062;DHT22;50308;47.438;-1.528;2023-01-15T07:21:19;10.60;78.60
64062;DHT22;50308;47.438;-1.528;2023-01-15T07:23:44;10.50;79.20
64062;DHT22;50308;47.438;-1.528;2023-01-15T07:26:10;10.40;79.50
64062;DHT22;50308;47.438;-1.528;2023-01-15T07:28:35;10.50;79.00
64062;DHT22;50308;47.438;-1.528;2023-01-15T07:31:01;10.40;79.20
64062;DHT22;50308;47.438;-1.528;2023-01-15T07:33:26;10.40;80.10
64062;DHT22;50308;47.438;-1.528;2023-01-15T07:35:52;10.40;79.60
64062;DHT22;50308;47.438;-1.528;2023-01-15T07:38:17;10.50;79.00
64062;DHT22;50308;47.438;-1.528;2023-01-15T07:40:43;10.50;79.30
64062;DHT22;50308;47.438;-1.528;2023-01-15T07:43:09;10.40;78.70
64062;DHT22;50308;47.438;-1.528;2023-01-15T07:45:53;10.50;79.20
64062;DHT22;50308;47.438;-1.528;2023-01-15T07:48:38;10.40;79.20
64062;DHT22;50308;47.438;-1.528;2023-01-15T07:51:22;10.40;78.70
64062;DHT22;50308;47.438;-1.528;2023-01-15T07:53:47;10.40;78.80
64062;DHT22;50308;47.438;-1.528;2023-01-15T07:56:13;10.40;78.90
64062;DHT22;50308;47.438;-1.528;2023-01-15T07:58:39;10.50;78.80
64062;DHT22;50308;47.438;-1.528;2023-01-15T08:01:04;10.50;78.90
64062;DHT22;50308;47.438;-1.528;2023-01-15T08:03:30;10.50;80.70
64062;DHT22;50308;47.438;-1.528;2023-01-15T08:05:55;10.50;78.80
64062;DHT22;50308;47.438;-1.528;2023-01-15T08:08:21;10.40;78.80
64062;DHT22;50308;47.438;-1.528;2023-01-15T08:10:46;10.30;78.70
64062;DHT22;50308;47.438;-1.528;2023-01-15T08:13:31;10.20;79.50
64062;DHT22;50308;47.438;-1.528;2023-01-15T08:16:15;10.30;79.40
64062;DHT22;50308;47.438;-1.528;2023-01-15T08:18:40;10.40;79.60
64062;DHT22;50308;47.438;-1.528;2023-01-15T08:21:11;10.40;79.20
64062;DHT22;50308;47.438;-1.528;2023-01-15T08:23:37;10.40;79.30
64062;DHT22;50308;47.438;-1.528;2023-01-15T08:26:02;10.30;80.10
64062;DHT22;50308;47.438;-1.528;2023-01-15T08:28:30;10.40;81.10
64062;DHT22;50308;47.438;-1.528;2023-01-15T08:30:55;10.40;79.60
64062;DHT22;50308;47.438;-1.528;2023-01-15T08:33:21;10.40;79.40
64062;DHT22;50308;47.438;-1.528;2023-01-15T08:35:46;10.30;79.30
64062;DHT22;50308;47.438;-1.528;2023-01-15T08:38:12;10.40;78.60
64062;DHT22;50308;47.438;-1.528;2023-01-15T08:40:37;10.30;78.30
64062;DHT22;50308;47.438;-1.528;2023-01-15T08:43:23;10.30;78.80
64062;DHT22;50308;47.438;-1.528;2023-01-15T08:45:48;10.40;78.80
64062;DHT22;50308;47.438;-1.528;2023-01-15T08:48:14;10.50;78.60
64062;DHT22;50308;47.438;-1.528;2023-01-15T08:50:39;10.50;78.10
64062;DHT22;50308;47.438;-1.528;2023-01-15T08:53:05;10.50;78.60
64062;DHT22;50308;47.438;-1.528;2023-01-15T08:55:30;10.50;78.70
64062;DHT22;50308;47.438;-1.528;2023-01-15T08:57:57;10.60;78.60
64062;DHT22;50308;47.438;-1.528;2023-01-15T09:00:22;10.50;78.00
64062;DHT22;50308;47.438;-1.528;2023-01-15T09:02:51;10.40;78.40
64062;DHT22;50308;47.438;-1.528;2023-01-15T09:05:17;10.40;78.70
64062;DHT22;50308;47.438;-1.528;2023-01-15T09:07:43;10.50;79.30
64062;DHT22;50308;47.438;-1.528;2023-01-15T09:10:09;10.50;78.60
64062;DHT22;50308;47.438;-1.528;2023-01-15T09:12:34;10.50;78.80
64062;DHT22;50308;47.438;-1.528;2023-01-15T09:15:00;10.50;79.30
64062;DHT22;50308;47.438;-1.528;2023-01-15T09:17:26;10.60;78.80
64062;DHT22;50308;47.438;-1.528;2023-01-15T09:19:52;10.60;78.70
64062;DHT22;50308;47.438;-1.528;2023-01-15T09:22:17;10.60;78.10
64062;DHT22;50308;47.438;-1.528;2023-01-15T09:24:43;10.60;79.00
64062;DHT22;50308;47.438;-1.528;2023-01-15T09:27:11;10.60;79.10
64062;DHT22;50308;47.438;-1.528;2023-01-15T09:29:37;10.60;79.80
64062;DHT22;50308;47.438;-1.528;2023-01-15T09:32:03;10.60;79.20
64062;DHT22;50308;47.438;-1.528;2023-01-15T09:34:28;10.50;79.70
64062;DHT22;50308;47.438;-1.528;2023-01-15T09:36:54;10.60;79.80
64062;DHT22;50308;47.438;-1.528;2023-01-15T09:39:19;10.60;79.60
64062;DHT22;50308;47.438;-1.528;2023-01-15T09:47:20;10.60;80.40
64062;DHT22;50308;47.438;-1.528;2023-01-15T09:54:48;10.70;80.60
64062;DHT22;50308;47.438;-1.528;2023-01-15T09:57:15;10.80;80.50
64062;DHT22;50308;47.438;-1.528;2023-01-15T09:59:43;10.80;80.30
64062;DHT22;50308;47.438;-1.528;2023-01-15T10:02:20;10.90;80.50
64062;DHT22;50308;47.438;-1.528;2023-01-15T10:04:48;10.90;80.60
64062;DHT22;50308;47.438;-1.528;2023-01-15T10:07:17;11.10;79.70
64062;DHT22;50308;47.438;-1.528;2023-01-15T10:09:49;11.00;79.00
64062;DHT22;50308;47.438;-1.528;2023-01-15T10:12:16;11.10;78.20
64062;DHT22;50308;47.438;-1.528;2023-01-15T10:15:04;11.00;79.00
64062;DHT22;50308;47.438;-1.528;2023-01-15T10:17:44;11.00;78.10
64062;DHT22;50308;47.438;-1.528;2023-01-15T10:20:17;11.10;78.20
64062;DHT22;50308;47.438;-1.528;2023-01-15T10:25:16;11.10;77.40
64062;DHT22;50308;47.438;-1.528;2023-01-15T10:27:46;11.10;77.80
64062;DHT22;50308;47.438;-1.528;2023-01-15T10:30:16;11.00;78.90
64062;DHT22;50308;47.438;-1.528;2023-01-15T10:32:45;11.10;78.80
64062;DHT22;50308;47.438;-1.528;2023-01-15T10:40:37;10.80;80.30
64062;DHT22;50308;47.438;-1.528;2023-01-15T10:43:09;10.70;80.90
64062;DHT22;50308;47.438;-1.528;2023-01-15T10:45:41;10.80;81.00
64062;DHT22;50308;47.438;-1.528;2023-01-15T10:48:11;10.80;80.60
64062;DHT22;50308;47.438;-1.528;2023-01-15T10:50:38;10.80;80.90
64062;DHT22;50308;47.438;-1.528;2023-01-15T10:53:10;10.80;80.60
64062;DHT22;50308;47.438;-1.528;2023-01-15T10:55:41;10.80;79.60
64062;DHT22;50308;47.438;-1.528;2023-01-15T10:58:29;10.90;80.00
64062;DHT22;50308;47.438;-1.528;2023-01-15T11:01:05;10.90;80.30
64062;DHT22;50308;47.438;-1.528;2023-01-15T11:03:38;10.90;79.70
64062;DHT22;50308;47.438;-1.528;2023-01-15T11:06:04;10.90;79.90
64062;DHT22;50308;47.438;-1.528;2023-01-15T11:08:32;10.90;79.50
64062;DHT22;50308;47.438;-1.528;2023-01-15T11:11:13;10.90;80.20
64062;DHT22;50308;47.438;-1.528;2023-01-15T11:13:50;10.90;79.40
64062;DHT22;50308;47.438;-1.528;2023-01-15T11:16:35;10.90;79.40
64062;DHT22;50308;47.438;-1.528;2023-01-15T11:19:03;10.80;79.20
64062;DHT22;50308;47.438;-1.528;2023-01-15T11:21:48;10.80;78.30
64062;DHT22;50308;47.438;-1.528;2023-01-15T11:24:15;10.70;78.60
64062;DHT22;50308;47.438;-1.528;2023-01-15T11:26:41;10.60;79.00
64062;DHT22;50308;47.438;-1.528;2023-01-15T11:29:11;10.50;79.60
64062;DHT22;50308;47.438;-1.528;2023-01-15T11:31:38;10.50;79.70
64062;DHT22;50308;47.438;-1.528;2023-01-15T11:34:05;10.40;80.20
64062;DHT22;50308;47.438;-1.528;2023-01-15T11:36:31;10.40;80.20
64062;DHT22;50308;47.438;-1.528;2023-01-15T11:38:57;10.30;81.60
64062;DHT22;50308;47.438;-1.528;2023-01-15T11:41:26;10.40;82.00
64062;DHT22;50308;47.438;-1.528;2023-01-15T11:44:12;10.40;82.50
64062;DHT22;50308;47.438;-1.528;2023-01-15T11:46:57;10.40;82.50
64062;DHT22;50308;47.438;-1.528;2023-01-15T11:49:50;10.40;82.90
64062;DHT22;50308;47.438;-1.528;2023-01-15T11:52:36;10.30;83.20
64062;DHT22;50308;47.438;-1.528;2023-01-15T11:55:02;10.40;83.50
64062;DHT22;50308;47.438;-1.528;2023-01-15T11:57:35;10.50;83.10
64062;DHT22;50308;47.438;-1.528;2023-01-15T12:00:01;10.50;83.50
64062;DHT22;50308;47.438;-1.528;2023-01-15T12:05:17;10.70;83.30
64062;DHT22;50308;47.438;-1.528;2023-01-15T12:07:44;10.80;83.20
64062;DHT22;50308;47.438;-1.528;2023-01-15T12:23:26;11.20;82.50
64062;DHT22;50308;47.438;-1.528;2023-01-15T12:28:31;11.30;82.40
64062;DHT22;50308;47.438;-1.528;2023-01-15T12:41:09;11.30;83.50
64062;DHT22;50308;47.438;-1.528;2023-01-15T12:43:36;11.10;83.20
64062;DHT22;50308;47.438;-1.528;2023-01-15T12:46:26;11.00;82.40
64062;DHT22;50308;47.438;-1.528;2023-01-15T12:51:54;10.80;83.10
64062;DHT22;50308;47.438;-1.528;2023-01-15T12:54:20;10.80;82.20
64062;DHT22;50308;47.438;-1.528;2023-01-15T12:56:56;10.80;82.70
64062;DHT22;50308;47.438;-1.528;2023-01-15T12:59:25;10.80;83.20
64062;DHT22;50308;47.438;-1.528;2023-01-15T13:01:56;10.80;83.00
64062;DHT22;50308;47.438;-1.528;2023-01-15T13:09:42;10.80;84.50
64062;DHT22;50308;47.438;-1.528;2023-01-15T13:12:12;10.90;82.90
64062;DHT22;50308;47.438;-1.528;2023-01-15T13:14:38;10.90;83.10
64062;DHT22;50308;47.438;-1.528;2023-01-15T13:17:05;10.90;83.20
64062;DHT22;50308;47.438;-1.528;2023-01-15T13:19:44;10.90;83.10
64062;DHT22;50308;47.438;-1.528;2023-01-15T13:22:13;11.00;83.20
64062;DHT22;50308;47.438;-1.528;2023-01-15T13:32:37;11.20;83.10
64062;DHT22;50308;47.438;-1.528;2023-01-15T13:37:33;11.20;82.90
64062;DHT22;50308;47.438;-1.528;2023-01-15T13:40:05;11.30;83.20
64062;DHT22;50308;47.438;-1.528;2023-01-15T13:42:34;11.40;83.30
64062;DHT22;50308;47.438;-1.528;2023-01-15T13:47:34;11.50;83.00
64062;DHT22;50308;47.438;-1.528;2023-01-15T13:50:05;11.50;82.90
64062;DHT22;50308;47.438;-1.528;2023-01-15T13:52:37;11.60;82.60
64062;DHT22;50308;47.438;-1.528;2023-01-15T13:55:19;11.70;82.60
64062;DHT22;50308;47.438;-1.528;2023-01-15T13:57:45;11.70;82.60
64062;DHT22;50308;47.438;-1.528;2023-01-15T14:00:26;11.70;81.80
64062;DHT22;50308;47.438;-1.528;2023-01-15T14:02:53;11.60;81.90
64062;DHT22;50308;47.438;-1.528;2023-01-15T14:05:30;11.60;81.20
64062;DHT22;50308;47.438;-1.528;2023-01-15T14:07:56;11.50;81.10
64062;DHT22;50308;47.438;-1.528;2023-01-15T14:10:23;11.50;81.40
64062;DHT22;50308;47.438;-1.528;2023-01-15T14:18:27;11.50;81.40
64062;DHT22;50308;47.438;-1.528;2023-01-15T14:36:28;11.40;81.70
64062;DHT22;50308;47.438;-1.528;2023-01-15T14:38:56;11.40;81.50
64062;DHT22;50308;47.438;-1.528;2023-01-15T14:41:32;11.40;81.50
64062;DHT22;50308;47.438;-1.528;2023-01-15T14:44:25;11.40;81.50
64062;DHT22;50308;47.438;-1.528;2023-01-15T14:46:55;11.50;81.50
64062;DHT22;50308;47.438;-1.528;2023-01-15T14:49:29;11.40;80.80
64062;DHT22;50308;47.438;-1.528;2023-01-15T14:51:55;11.40;81.00
64062;DHT22;50308;47.438;-1.528;2023-01-15T14:54:22;11.40;80.90
64062;DHT22;50308;47.438;-1.528;2023-01-15T14:56:50;11.40;81.00
64062;DHT22;50308;47.438;-1.528;2023-01-15T14:59:25;11.40;80.80
64062;DHT22;50308;47.438;-1.528;2023-01-15T15:02:04;11.40;81.40
64062;DHT22;50308;47.438;-1.528;2023-01-15T15:04:49;11.30;80.10
64062;DHT22;50308;47.438;-1.528;2023-01-15T15:07:25;11.30;80.30
64062;DHT22;50308;47.438;-1.528;2023-01-15T15:10:01;11.30;80.10
64062;DHT22;50308;47.438;-1.528;2023-01-15T15:12:40;11.20;79.40
64062;DHT22;50308;47.438;-1.528;2023-01-15T15:19:59;11.10;79.20
64062;DHT22;50308;47.438;-1.528;2023-01-15T15:22:26;11.20;78.90
64062;DHT22;50308;47.438;-1.528;2023-01-15T15:24:53;11.00;78.70
64062;DHT22;50308;47.438;-1.528;2023-01-15T15:27:20;11.00;78.50
64062;DHT22;50308;47.438;-1.528;2023-01-15T15:29:46;11.00;79.00
64062;DHT22;50308;47.438;-1.528;2023-01-15T15:32:16;11.00;79.00
64062;DHT22;50308;47.438;-1.528;2023-01-15T15:34:42;11.00;79.10
64062;DHT22;50308;47.438;-1.528;2023-01-15T15:37:15;11.10;78.80
64062;DHT22;50308;47.438;-1.528;2023-01-15T15:39:44;11.00;78.90
64062;DHT22;50308;47.438;-1.528;2023-01-15T15:42:16;11.10;78.80
64062;DHT22;50308;47.438;-1.528;2023-01-15T15:45:05;11.10;79.20
64062;DHT22;50308;47.438;-1.528;2023-01-15T15:47:54;11.00;78.80
64062;DHT22;50308;47.438;-1.528;2023-01-15T15:50:39;11.00;79.20
64062;DHT22;50308;47.438;-1.528;2023-01-15T15:53:04;11.10;79.20
64062;DHT22;50308;47.438;-1.528;2023-01-15T15:55:35;11.10;79.20
64062;DHT22;50308;47.438;-1.528;2023-01-15T15:58:01;11.00;79.00
64062;DHT22;50308;47.438;-1.528;2023-01-15T16:00:31;11.00;79.80
64062;DHT22;50308;47.438;-1.528;2023-01-15T16:03:04;11.00;79.80
64062;DHT22;50308;47.438;-1.528;2023-01-15T16:05:31;11.10;80.00
64062;DHT22;50308;47.438;-1.528;2023-01-15T16:08:07;11.20;79.50
64062;DHT22;50308;47.438;-1.528;2023-01-15T16:10:33;11.10;79.50
64062;DHT22;50308;47.438;-1.528;2023-01-15T16:13:01;11.10;79.60
64062;DHT22;50308;47.438;-1.528;2023-01-15T16:15:35;11.20;80.20
64062;DHT22;50308;47.438;-1.528;2023-01-15T16:18:02;11.30;80.00
64062;DHT22;50308;47.438;-1.528;2023-01-15T16:20:28;11.30;79.50
64062;DHT22;50308;47.438;-1.528;2023-01-15T16:22:55;11.30;80.00
64062;DHT22;50308;47.438;-1.528;2023-01-15T16:25:22;11.40;81.50
64062;DHT22;50308;47.438;-1.528;2023-01-15T16:27:48;11.30;80.00
64062;DHT22;50308;47.438;-1.528;2023-01-15T16:30:14;11.40;81.10
64062;DHT22;50308;47.438;-1.528;2023-01-15T16:32:40;11.30;80.30
64062;DHT22;50308;47.438;-1.528;2023-01-15T16:35:13;11.40;80.40
64062;DHT22;50308;47.438;-1.528;2023-01-15T16:37:39;11.30;80.30
64062;DHT22;50308;47.438;-1.528;2023-01-15T16:40:05;11.40;80.50
64062;DHT22;50308;47.438;-1.528;2023-01-15T16:42:35;11.40;80.90
64062;DHT22;50308;47.438;-1.528;2023-01-15T16:47:36;11.30;81.60
64062;DHT22;50308;47.438;-1.528;2023-01-15T16:50:22;11.30;82.20
64062;DHT22;50308;47.438;-1.528;2023-01-15T16:52:51;11.30;82.20
64062;DHT22;50308;47.438;-1.528;2023-01-15T17:00:43;11.10;83.50
64062;DHT22;50308;47.438;-1.528;2023-01-15T17:03:10;11.00;83.80
64062;DHT22;50308;47.438;-1.528;2023-01-15T17:05:36;11.00;84.10
64062;DHT22;50308;47.438;-1.528;2023-01-15T17:08:02;11.00;84.10
64062;DHT22;50308;47.438;-1.528;2023-01-15T17:10:28;11.00;84.20
64062;DHT22;50308;47.438;-1.528;2023-01-15T17:12:55;11.00;84.40
64062;DHT22;50308;47.438;-1.528;2023-01-15T17:17:51;11.10;84.00
64062;DHT22;50308;47.438;-1.528;2023-01-15T17:20:17;11.10;83.90
64062;DHT22;50308;47.438;-1.528;2023-01-15T17:22:44;11.20;83.90
64062;DHT22;50308;47.438;-1.528;2023-01-15T17:27:55;11.10;83.00
64062;DHT22;50308;47.438;-1.528;2023-01-15T17:30:21;11.00;82.40
64062;DHT22;50308;47.438;-1.528;2023-01-15T17:32:50;10.90;82.80
64062;DHT22;50308;47.438;-1.528;2023-01-15T17:35:23;10.90;82.70
64062;DHT22;50308;47.438;-1.528;2023-01-15T17:37:49;10.90;82.60
64062;DHT22;50308;47.438;-1.528;2023-01-15T17:40:15;10.90;82.70
64062;DHT22;50308;47.438;-1.528;2023-01-15T17:42:41;10.90;82.50